Time;durP1;ratioP1;P1;durP2;ratioP2;P2;SDS_P1;SDS_P2;PMS_P1;PMS_P2;Temp;Humidity;BMP_temperature;BMP_pressure;BME280_temperature;BME280_humidity;BME280_pressure;Samples;Min_cycle;Max_cycle;Signal;HPM_P1;HPM_P2
2022/01/21 00:00:12;;;;;;;11.32;4.13;;;;;;;0.67;70.29;100760.25;5100123;28;20024;-70
2022/01/21 00:02:38;;;;;;;8.60;3.83;;;;;;;0.66;70.47;100766.44;5102411;28;20039;-70
2022/01/21 00:05:06;;;;;;;11.35;4.13;;;;;;;0.69;70.81;100766.31;5101643;28;20028;-67
2022/01/21 00:07:31;;;;;;;10.00;3.85;;;;;;;0.66;70.58;100761.16;5084050;28;20480;-67
2022/01/21 00:09:57;;;;;;;11.52;4.03;;;;;;;0.68;70.27;100763.75;5095081;27;20019;-67
2022/01/21 00:12:23;;;;;;;14.23;4.28;;;;;;;0.71;70.63;100764.47;5102375;28;20081;-67
2022/01/21 00:14:49;;;;;;;14.25;3.97;;;;;;;0.62;70.40;100748.16;5104898;28;20032;-67
2022/01/21 00:17:16;;;;;;;9.00;3.65;;;;;;;0.64;70.71;100763.00;5099793;28;20039;-67
2022/01/21 00:19:45;;;;;;;7.68;3.70;;;;;;;0.60;70.98;100763.19;5104697;27;20023;-67
2022/01/21 00:30:25;;;;;;;7.53;3.53;;;;;;;0.55;70.56;100766.00;5102346;28;20041;-70
2022/01/21 00:32:51;;;;;;;10.60;4.00;;;;;;;0.47;70.57;100757.53;5109255;28;20683;-70
2022/01/21 00:35:18;;;;;;;12.55;4.35;;;;;;;0.46;70.83;100761.13;5107101;28;20062;-70
2022/01/21 00:37:44;;;;;;;18.83;4.85;;;;;;;0.42;71.26;100771.84;5103838;28;20059;-70
2022/01/21 00:40:14;;;;;;;7.18;4.05;;;;;;;0.36;71.35;100777.34;5108701;28;20075;-70
2022/01/21 00:45:12;;;;;;;15.68;5.32;;;;;;;0.30;72.77;100770.53;5105493;28;20024;-70
2022/01/21 00:47:37;;;;;;;14.88;4.60;;;;;;;0.30;73.00;100782.88;5086401;28;20072;-70
2022/01/21 00:50:04;;;;;;;12.15;4.43;;;;;;;0.25;73.29;100780.41;5106822;28;20127;-67
2022/01/21 00:52:29;;;;;;;10.93;4.85;;;;;;;0.20;73.21;100784.13;5097803;28;20035;-67
2022/01/21 00:54:55;;;;;;;11.98;4.60;;;;;;;0.19;73.52;100785.91;5098297;28;20050;-67
2022/01/21 00:57:20;;;;;;;15.13;4.78;;;;;;;0.18;73.54;100789.47;5101601;28;20035;-67
2022/01/21 00:59:45;;;;;;;14.65;4.50;;;;;;;0.08;73.07;100780.19;5105527;28;20092;-67
2022/01/21 01:02:11;;;;;;;13.90;5.47;;;;;;;0.06;73.88;100784.66;5105308;28;20212;-67
2022/01/21 01:04:37;;;;;;;14.70;5.32;;;;;;;0.09;74.00;100794.25;5104356;28;20376;-67
2022/01/21 01:07:03;;;;;;;10.80;4.30;;;;;;;0.00;74.56;100787.53;5096551;27;20088;-67
2022/01/21 01:09:29;;;;;;;13.38;5.13;;;;;;;0.01;74.87;100778.72;5100394;28;20034;-67
2022/01/21 01:19:58;;;;;;;12.13;4.47;;;;;;;0.09;75.26;100759.97;5109360;27;20034;-70
2022/01/21 01:22:35;;;;;;;10.65;4.53;;;;;;;0.16;75.17;100749.09;5106556;28;20023;-69
2022/01/21 01:27:47;;;;;;;10.20;3.78;;;;;;;0.32;74.24;100755.50;5106645;28;20100;-70
2022/01/21 01:30:16;;;;;;;10.25;4.05;;;;;;;0.29;74.35;100746.88;5107344;28;20027;-70
2022/01/21 01:32:44;;;;;;;9.50;3.55;;;;;;;0.35;74.48;100757.19;5103038;28;20027;-67
2022/01/21 01:35:11;;;;;;;10.15;3.70;;;;;;;0.34;75.06;100742.25;5108624;28;20031;-67
2022/01/21 01:37:56;;;;;;;8.73;4.03;;;;;;;0.35;75.49;100734.28;5098839;28;20024;-67
2022/01/21 01:40:29;;;;;;;10.55;3.90;;;;;;;0.42;75.61;100746.31;5076171;28;20024;-68
2022/01/21 01:43:23;;;;;;;11.37;3.90;;;;;;;0.43;76.47;100742.75;5099765;28;20036;-67
2022/01/21 01:51:13;;;;;;;13.48;4.00;;;;;;;0.46;76.32;100723.31;5091029;28;20082;-68
2022/01/21 01:53:51;;;;;;;10.52;3.78;;;;;;;0.46;76.37;100736.50;5084950;28;20036;-67
2022/01/21 01:56:20;;;;;;;9.02;3.38;;;;;;;0.43;76.14;100731.34;5100923;28;20116;-67
2022/01/21 01:58:46;;;;;;;7.90;2.95;;;;;;;0.40;76.22;100731.47;5104481;28;20032;-67
2022/01/21 02:01:11;;;;;;;6.28;2.90;;;;;;;0.35;75.88;100715.81;5100050;28;20031;-67
2022/01/21 02:03:37;;;;;;;10.18;4.22;;;;;;;0.50;74.54;100741.59;5096503;28;20043;-68
2022/01/21 02:06:04;;;;;;;7.72;4.00;;;;;;;0.49;74.31;100744.28;5101920;28;20456;-67
2022/01/21 02:08:30;;;;;;;12.52;3.88;;;;;;;0.53;74.46;100751.16;5083418;28;20061;-67
2022/01/21 02:10:56;;;;;;;10.73;4.05;;;;;;;0.50;74.15;100760.06;5090913;28;20101;-67
2022/01/21 02:13:26;;;;;;;9.80;4.15;;;;;;;0.69;73.73;100761.03;5100289;28;20035;-68
2022/01/21 02:16:02;;;;;;;13.00;4.40;;;;;;;0.63;72.95;100749.88;5111482;28;20058;-67
2022/01/21 02:23:54;;;;;;;12.38;4.70;;;;;;;0.64;74.01;100764.78;5105261;28;20587;-67
2022/01/21 02:26:20;;;;;;;11.23;3.22;;;;;;;0.65;74.44;100759.47;5091983;28;20114;-70
2022/01/21 02:28:46;;;;;;;8.68;3.13;;;;;;;0.62;74.68;100770.13;5089890;28;20027;-70
2022/01/21 02:31:12;;;;;;;8.63;3.08;;;;;;;0.65;75.12;100766.50;5085634;28;20505;-69
2022/01/21 02:33:37;;;;;;;11.50;3.58;;;;;;;0.60;75.67;100763.19;5104686;28;20039;-70
2022/01/21 02:36:03;;;;;;;8.80;2.72;;;;;;;0.57;75.86;100758.03;5087486;28;20027;-70
2022/01/21 02:38:28;;;;;;;8.07;2.92;;;;;;;0.62;76.43;100756.94;5108241;28;20052;-70
2022/01/21 02:40:53;;;;;;;6.47;2.95;;;;;;;0.64;76.63;100755.09;5111591;28;20027;-69
2022/01/21 02:43:21;;;;;;;10.07;2.67;;;;;;;0.57;76.88;100758.88;5110730;28;20065;-70
2022/01/21 02:45:47;;;;;;;6.85;2.78;;;;;;;0.59;77.04;100762.34;5101717;28;20031;-70
2022/01/21 02:48:13;;;;;;;7.45;2.63;;;;;;;0.56;77.71;100761.59;5109033;28;20066;-70
2022/01/21 02:50:39;;;;;;;8.95;3.10;;;;;;;0.65;77.77;100754.19;5082979;28;20071;-69
2022/01/21 02:53:11;;;;;;;7.13;2.72;;;;;;;0.62;78.17;100733.19;5110688;28;20031;-70
2022/01/21 02:55:37;;;;;;;5.82;2.10;;;;;;;0.64;78.16;100747.16;5108647;28;20024;-70
2022/01/21 02:58:03;;;;;;;4.65;2.03;;;;;;;0.73;77.91;100754.72;5086848;28;20034;-69
2022/01/21 03:00:29;;;;;;;5.97;2.13;;;;;;;0.69;78.11;100761.03;5100398;28;20122;-67
2022/01/21 03:02:54;;;;;;;5.57;1.80;;;;;;;0.69;78.03;100755.75;5101640;27;20031;-67
2022/01/21 03:05:20;;;;;;;3.92;1.55;;;;;;;0.68;78.69;100756.66;5108752;28;20134;-67
2022/01/21 03:07:47;;;;;;;3.85;1.42;;;;;;;0.77;78.13;100755.47;5107895;28;20341;-67
2022/01/21 03:10:14;;;;;;;4.47;1.60;;;;;;;0.63;78.77;100745.44;5108557;28;20024;-67
2022/01/21 03:12:40;;;;;;;7.30;2.63;;;;;;;0.63;79.26;100747.22;5108159;28;20384;-67
2022/01/21 03:15:07;;;;;;;3.88;1.67;;;;;;;0.63;79.68;100741.94;5106427;27;20032;-67
2022/01/21 03:17:33;;;;;;;3.22;1.55;;;;;;;0.64;79.37;100733.97;5087205;28;20393;-67
2022/01/21 03:19:59;;;;;;;5.53;1.73;;;;;;;0.55;80.05;100721.13;5107138;28;20035;-67
2022/01/21 03:22:25;;;;;;;3.13;0.90;;;;;;;0.50;80.29;100720.50;5107257;28;20049;-67
2022/01/21 03:24:50;;;;;;;6.10;1.38;;;;;;;0.54;79.78;100724.72;5107513;28;20023;-68
2022/01/21 03:27:16;;;;;;;4.43;1.10;;;;;;;0.53;80.14;100711.56;5106648;28;20043;-68
2022/01/21 03:29:42;;;;;;;4.47;1.48;;;;;;;0.42;80.33;100700.63;5102759;28;20047;-70
2022/01/21 03:32:08;;;;;;;3.90;1.67;;;;;;;0.50;80.35;100702.03;5082985;28;20058;-68
2022/01/21 03:34:34;;;;;;;1.88;1.10;;;;;;;0.40;80.73;100711.22;5103085;28;20369;-70
2022/01/21 03:36:59;;;;;;;5.25;1.63;;;;;;;0.44;80.87;100726.00;5083243;28;20036;-70
2022/01/21 03:39:25;;;;;;;5.05;2.05;;;;;;;0.39;80.83;100733.25;5103988;28;20032;-70
2022/01/21 03:41:50;;;;;;;3.78;1.40;;;;;;;0.34;81.68;100714.09;5098812;27;20030;-70
2022/01/21 03:44:16;;;;;;;4.07;1.40;;;;;;;0.34;82.39;100708.84;5102598;27;20027;-70
2022/01/21 03:46:41;;;;;;;4.22;1.38;;;;;;;0.41;81.70;100722.63;5102464;28;20024;-69
2022/01/21 03:49:08;;;;;;;3.30;1.20;;;;;;;0.41;81.50;100734.03;5110806;28;20108;-70
2022/01/21 03:51:34;;;;;;;3.88;1.55;;;;;;;0.44;81.51;100726.00;5109390;28;20057;-70
2022/01/21 03:53:59;;;;;;;4.82;1.33;;;;;;;0.34;82.25;100714.09;5113543;28;20487;-69
2022/01/21 03:56:25;;;;;;;3.13;1.20;;;;;;;0.33;82.89;100722.09;5104652;28;20019;-70
2022/01/21 03:58:51;;;;;;;5.25;1.23;;;;;;;0.23;82.93;100711.06;5085437;28;20036;-70
2022/01/21 04:01:18;;;;;;;2.13;1.15;;;;;;;0.26;83.30;100725.88;5104322;28;20056;-70
2022/01/21 04:03:43;;;;;;;4.55;1.13;;;;;;;0.22;83.24;100729.56;5105537;28;20086;-70
2022/01/21 04:06:09;;;;;;;7.05;1.40;;;;;;;0.19;83.91;100724.41;5105710;28;20031;-70
2022/01/21 04:08:34;;;;;;;9.60;1.60;;;;;;;0.17;83.31;100721.84;5103441;28;20019;-70
2022/01/21 04:11:00;;;;;;;3.70;1.60;;;;;;;0.21;83.38;100731.34;5102509;28;20023;-70
2022/01/21 04:13:26;;;;;;;5.55;1.50;;;;;;;0.27;83.62;100739.00;5108115;28;20042;-69
2022/01/21 04:15:56;;;;;;;3.90;1.10;;;;;;;0.21;83.24;100728.69;5089634;28;20031;-70
2022/01/21 04:18:24;;;;;;;3.42;1.30;;;;;;;0.11;83.67;100743.16;5107451;28;20058;-70
2022/01/21 04:20:52;;;;;;;6.85;1.48;;;;;;;0.18;84.04;100751.69;5100679;28;20036;-69
2022/01/21 04:23:20;;;;;;;3.28;1.40;;;;;;;0.11;83.78;100743.16;5106926;28;20032;-70
2022/01/21 04:25:46;;;;;;;3.40;1.38;;;;;;;0.04;84.26;100744.31;5106325;28;20111;-70
2022/01/21 04:28:11;;;;;;;2.53;1.27;;;;;;;0.11;84.07;100755.47;5100832;28;20096;-70
2022/01/21 04:30:37;;;;;;;4.00;1.60;;;;;;;0.03;84.74;100765.47;5082686;28;20024;-70
2022/01/21 04:33:04;;;;;;;3.15;1.60;;;;;;;-0.03;85.05;100772.69;5106776;28;20106;-67
2022/01/21 04:35:30;;;;;;;4.05;1.55;;;;;;;0.03;85.25;100765.47;5111109;28;20386;-70
2022/01/21 04:38:00;;;;;;;3.78;1.70;;;;;;;-0.07;85.39;100763.19;5105918;28;20115;-70
2022/01/21 04:40:30;;;;;;;5.18;1.50;;;;;;;0.00;85.75;100771.72;5091466;28;20459;-70
2022/01/21 04:48:24;;;;;;;4.07;1.10;;;;;;;-0.07;86.13;100780.75;5103166;28;20042;-69
2022/01/21 04:51:39;;;;;;;5.88;1.83;;;;;;;-0.09;86.30;100785.25;5099988;28;20444;-70
2022/01/21 04:53:40;;;;;;;2.25;1.52;;;;;;;-0.14;86.38;100784.53;5090979;28;20118;-70
2022/01/21 04:56:06;;;;;;;8.30;2.22;;;;;;;-0.12;86.46;100780.91;5087158;28;20110;-69
2022/01/21 04:58:32;;;;;;;3.35;1.50;;;;;;;-0.16;85.73;100775.84;5095383;28;20034;-70
2022/01/21 05:01:02;;;;;;;7.07;1.70;;;;;;;-0.10;85.45;100783.50;5090468;28;20132;-69
2022/01/21 05:03:28;;;;;;;7.45;2.00;;;;;;;-0.15;85.61;100780.19;5111264;28;20440;-70
2022/01/21 05:05:53;;;;;;;3.50;1.80;;;;;;;-0.15;85.35;100783.72;5104327;28;20034;-69
2022/01/21 05:08:27;;;;;;;5.07;2.45;;;;;;;-0.17;85.19;100785.53;5109115;28;20085;-67
2022/01/21 05:10:52;;;;;;;8.88;2.90;;;;;;;-0.27;84.90;100767.47;5110253;28;20142;-67
2022/01/21 05:13:23;;;;;;;6.15;1.90;;;;;;;-0.21;84.02;100769.88;5109528;28;20047;-67
2022/01/21 05:16:10;;;;;;;6.32;2.10;;;;;;;-0.22;83.99;100782.19;5105860;28;20122;-68
2022/01/21 05:18:35;;;;;;;3.45;1.83;;;;;;;-0.36;84.12;100781.84;5103231;28;20058;-66
2022/01/21 05:21:01;;;;;;;2.67;1.33;;;;;;;-0.42;84.55;100789.13;5093035;28;20097;-66
2022/01/21 05:23:27;;;;;;;2.05;1.80;;;;;;;-0.45;84.77;100792.69;5085844;28;20028;-67
2022/01/21 05:25:53;;;;;;;4.10;1.83;;;;;;;-0.29;83.48;100796.50;5076880;28;20040;-67
2022/01/21 05:28:18;;;;;;;7.40;2.63;;;;;;;-0.36;83.35;100787.09;5103236;28;20031;-67
2022/01/21 05:30:44;;;;;;;6.57;2.00;;;;;;;-0.31;83.45;100793.09;5090481;28;20028;-70
2022/01/21 05:33:10;;;;;;;3.78;1.85;;;;;;;-0.11;81.69;100793.22;5104863;28;20379;-69
2022/01/21 05:35:35;;;;;;;3.05;1.50;;;;;;;-0.15;81.90;100803.91;5111352;28;20038;-70
2022/01/21 05:38:01;;;;;;;4.93;2.10;;;;;;;-0.15;82.24;100801.28;5110101;28;20117;-70
2022/01/21 05:40:26;;;;;;;5.53;1.98;;;;;;;-0.15;82.14;100815.34;5091179;28;20104;-70
2022/01/21 05:42:52;;;;;;;4.25;1.83;;;;;;;-0.27;81.28;100770.09;5103957;28;20027;-70
2022/01/21 05:48:01;;;;;;;5.10;1.85;;;;;;;-0.11;80.20;100790.56;5108021;27;20085;-67
2022/01/21 05:50:27;;;;;;;4.40;1.83;;;;;;;-0.13;80.33;100796.78;5086288;28;20504;-68
2022/01/21 05:52:54;;;;;;;6.45;2.00;;;;;;;-0.05;79.49;100807.94;5081574;28;20062;-70
2022/01/21 05:55:20;;;;;;;5.53;2.10;;;;;;;-0.03;78.56;100809.59;5079098;28;20032;-70
2022/01/21 05:57:45;;;;;;;6.10;2.42;;;;;;;-0.05;78.81;100810.56;5090461;28;20035;-69
2022/01/21 06:00:12;;;;;;;7.28;2.05;;;;;;;0.01;77.60;100815.63;5093397;28;20028;-70
2022/01/21 06:02:37;;;;;;;3.92;1.85;;;;;;;-0.01;77.63;100820.06;5091994;28;20091;-69
2022/01/21 06:05:04;;;;;;;5.18;2.10;;;;;;;-0.10;77.74;100830.94;5092791;28;20111;-71
2022/01/21 06:07:30;;;;;;;6.22;1.70;;;;;;;-0.10;77.84;100830.94;5086234;28;20166;-70
2022/01/21 06:09:55;;;;;;;3.90;1.65;;;;;;;-0.08;77.21;100837.03;5089483;28;20115;-66
2022/01/21 06:12:21;;;;;;;5.30;1.67;;;;;;;-0.11;76.91;100842.41;5094207;28;20038;-67
2022/01/21 06:14:46;;;;;;;7.28;1.77;;;;;;;0.02;74.96;100838.41;5091325;28;20494;-67
2022/01/21 06:17:13;;;;;;;2.90;1.80;;;;;;;-0.10;75.40;100841.50;5093089;28;20043;-66
2022/01/21 06:19:39;;;;;;;7.50;1.90;;;;;;;-0.09;75.49;100845.88;5074849;28;20036;-67
2022/01/21 06:22:05;;;;;;;6.30;1.92;;;;;;;0.00;74.44;100856.94;5083197;28;20086;-67
2022/01/21 06:24:31;;;;;;;8.50;2.90;;;;;;;-0.03;73.96;100848.28;5085432;28;20032;-67
2022/01/21 06:27:01;;;;;;;6.78;2.28;;;;;;;0.00;73.02;100848.19;5084399;28;20039;-67
2022/01/21 06:29:26;;;;;;;9.70;2.88;;;;;;;0.03;72.67;100868.28;5091027;28;20027;-67
2022/01/21 06:31:52;;;;;;;8.55;2.55;;;;;;;-0.01;72.57;100863.13;5086417;28;20069;-67
2022/01/21 06:34:17;;;;;;;6.47;2.40;;;;;;;-0.10;72.57;100855.53;5091433;28;20043;-67
2022/01/21 06:36:43;;;;;;;8.60;2.88;;;;;;;-0.09;72.06;100865.16;5081131;28;20123;-67
2022/01/21 06:39:08;;;;;;;5.32;3.10;;;;;;;-0.03;72.30;100885.19;5081422;28;20031;-70
2022/01/21 06:41:34;;;;;;;7.32;3.45;;;;;;;0.03;71.36;100888.47;5086350;28;20038;-70
2022/01/21 06:44:00;;;;;;;10.40;2.55;;;;;;;0.07;71.49;100907.69;5084130;28;20690;-70
2022/01/21 06:46:26;;;;;;;6.72;2.75;;;;;;;0.06;70.92;100895.38;5083729;28;20035;-67
2022/01/21 06:48:51;;;;;;;7.13;2.55;;;;;;;0.18;70.16;100897.59;5077448;28;20028;-67
2022/01/21 06:51:17;;;;;;;8.43;3.00;;;;;;;0.01;70.72;100897.34;5096320;28;20070;-66
2022/01/21 06:53:42;;;;;;;4.00;2.10;;;;;;;0.07;70.25;100905.03;5099850;28;20024;-67
2022/01/21 06:56:08;;;;;;;6.85;2.45;;;;;;;0.03;70.33;100913.13;5075910;28;20027;-66
2022/01/21 06:58:33;;;;;;;5.97;2.10;;;;;;;0.09;69.49;100913.75;5080459;28;20051;-67
2022/01/21 07:00:59;;;;;;;5.90;2.05;;;;;;;0.13;69.52;100925.94;5080015;28;20035;-67
2022/01/21 07:03:24;;;;;;;4.90;2.25;;;;;;;0.10;69.71;100931.31;5077710;28;20031;-68
2022/01/21 07:05:50;;;;;;;9.85;2.60;;;;;;;0.13;69.34;100936.47;5077092;28;20047;-67
2022/01/21 07:08:16;;;;;;;6.00;2.30;;;;;;;0.01;69.53;100929.00;5082472;28;20031;-68
2022/01/21 07:10:42;;;;;;;6.10;2.25;;;;;;;0.18;68.71;100934.50;5090166;28;20066;-67
2022/01/21 07:13:08;;;;;;;5.00;2.42;;;;;;;0.14;68.48;100940.81;5085918;28;20035;-67
2022/01/21 07:15:34;;;;;;;3.95;2.10;;;;;;;0.10;69.14;100944.50;5078913;28;20097;-67
2022/01/21 07:17:59;;;;;;;6.88;2.58;;;;;;;0.08;69.04;100956.84;5077461;28;20071;-68
2022/01/21 07:20:25;;;;;;;4.68;2.20;;;;;;;0.27;68.27;100960.56;5084116;28;20038;-67
2022/01/21 07:22:50;;;;;;;4.47;2.53;;;;;;;0.11;68.66;100959.38;5084498;28;20023;-67
2022/01/21 07:25:17;;;;;;;7.78;2.40;;;;;;;0.16;68.19;100962.69;5083070;28;20043;-67
2022/01/21 07:27:44;;;;;;;5.82;2.00;;;;;;;0.07;68.73;100973.59;5086540;28;20111;-67
2022/01/21 07:30:11;;;;;;;9.90;2.15;;;;;;;0.04;68.95;100950.81;5099595;28;20043;-68
2022/01/21 07:32:38;;;;;;;6.63;2.25;;;;;;;0.21;68.31;100959.91;5101506;28;20024;-67
2022/01/21 07:35:04;;;;;;;9.18;2.35;;;;;;;0.19;67.83;100967.03;5083250;28;20526;-68
2022/01/21 07:37:29;;;;;;;5.60;1.92;;;;;;;0.25;67.95;100980.00;5082471;28;20974;-66
2022/01/21 07:39:55;;;;;;;8.27;2.65;;;;;;;0.24;67.98;100973.88;5081505;28;20115;-67
2022/01/21 07:42:20;;;;;;;7.72;2.30;;;;;;;0.36;67.13;100965.53;5101294;28;20044;-67
2022/01/21 07:44:47;;;;;;;5.45;2.25;;;;;;;0.29;67.68;100971.06;5096926;28;20035;-67
2022/01/21 07:47:12;;;;;;;5.28;2.28;;;;;;;0.40;67.15;100992.63;5089820;28;20035;-67
2022/01/21 07:49:38;;;;;;;4.93;2.08;;;;;;;0.49;65.68;100981.75;5080880;28;20404;-67
2022/01/21 07:52:04;;;;;;;5.97;2.63;;;;;;;0.49;65.80;100993.19;5092672;28;22087;-66
2022/01/21 07:54:29;;;;;;;6.97;2.15;;;;;;;0.38;66.25;100983.94;5103468;28;20153;-67
2022/01/21 07:56:56;;;;;;;6.85;2.22;;;;;;;0.47;66.31;100994.13;5100910;28;20890;-67
2022/01/21 07:59:21;;;;;;;6.47;2.10;;;;;;;0.41;66.41;100982.03;5095379;28;20040;-67
2022/01/21 08:01:47;;;;;;;9.90;2.83;;;;;;;0.48;65.86;100990.59;5101486;28;20028;-67
2022/01/21 08:04:12;;;;;;;8.75;2.30;;;;;;;0.40;66.52;100990.00;5083996;28;20036;-67
2022/01/21 08:06:38;;;;;;;4.90;1.52;;;;;;;0.47;65.78;100978.28;5101756;28;20218;-67
2022/01/21 08:09:05;;;;;;;7.15;1.90;;;;;;;0.50;65.76;100978.19;5101695;28;20027;-66
2022/01/21 08:11:30;;;;;;;4.47;2.28;;;;;;;0.50;65.92;100979.06;5085778;28;22051;-67
2022/01/21 08:13:56;;;;;;;11.05;2.33;;;;;;;0.57;65.58;100982.31;5106097;28;20047;-66
2022/01/21 08:16:22;;;;;;;5.68;1.85;;;;;;;0.66;65.03;100993.41;5081392;28;20032;-67
2022/01/21 08:18:49;;;;;;;4.82;1.80;;;;;;;0.70;64.97;101010.00;5100008;28;20108;-66
2022/01/21 08:21:18;;;;;;;10.25;2.88;;;;;;;0.71;64.09;100995.91;5078095;28;20039;-66
2022/01/21 08:23:49;;;;;;;11.02;2.67;;;;;;;0.91;64.06;101014.50;5086493;28;20039;-67
2022/01/21 08:26:20;;;;;;;7.65;2.90;;;;;;;0.86;63.67;101019.94;5090407;28;20031;-67
2022/01/21 08:28:45;;;;;;;6.20;2.55;;;;;;;0.75;64.90;101010.69;5085413;28;20062;-67
2022/01/21 08:31:11;;;;;;;9.63;2.70;;;;;;;0.86;64.94;101029.63;5086580;28;20031;-66
2022/01/21 08:33:37;;;;;;;7.95;2.67;;;;;;;0.90;63.81;101023.34;5082999;28;20077;-67
2022/01/21 08:36:02;;;;;;;10.60;3.22;;;;;;;1.10;62.82;101024.28;5103284;28;20035;-66
2022/01/21 08:38:28;;;;;;;3.80;2.00;;;;;;;0.90;63.51;101016.25;5098866;28;20040;-67
2022/01/21 08:40:53;;;;;;;12.52;2.75;;;;;;;0.92;63.94;101029.41;5100409;28;20054;-67
2022/01/21 08:43:19;;;;;;;8.98;2.53;;;;;;;1.05;63.08;101035.94;5095591;28;20115;-66
2022/01/21 08:45:44;;;;;;;6.10;1.98;;;;;;;0.91;63.26;101033.84;5099117;28;20031;-68
2022/01/21 08:48:10;;;;;;;8.93;2.42;;;;;;;0.86;63.96;101035.78;5097821;28;20424;-67
2022/01/21 08:50:36;;;;;;;7.60;2.78;;;;;;;0.90;63.37;101026.81;5097733;28;20400;-66
2022/01/21 08:53:36;;;;;;;4.75;1.88;;;;;;;0.90;63.43;101032.09;5104483;28;20036;-66
2022/01/21 08:55:57;;;;;;;6.30;2.33;;;;;;;0.99;61.72;101036.16;5100060;28;20080;-67
2022/01/21 08:58:23;;;;;;;8.75;2.17;;;;;;;1.02;62.17;101049.25;5104150;27;20034;-66
2022/01/21 09:00:48;;;;;;;7.13;2.10;;;;;;;1.04;62.39;101029.81;5102156;28;20345;-67
2022/01/21 09:03:14;;;;;;;7.03;2.33;;;;;;;1.29;60.29;101038.50;5098824;28;20031;-66
2022/01/21 09:05:39;;;;;;;7.13;2.47;;;;;;;1.16;61.18;101053.13;5098310;28;20028;-66
2022/01/21 09:08:05;;;;;;;10.68;2.47;;;;;;;1.21;60.48;101045.00;5082419;28;20031;-66
2022/01/21 09:10:30;;;;;;;9.73;2.45;;;;;;;1.32;60.14;101034.91;5100377;28;20119;-67
2022/01/21 09:12:56;;;;;;;6.72;2.83;;;;;;;1.29;60.03;101035.88;5088724;28;20039;-71
2022/01/21 09:15:25;;;;;;;8.60;1.90;;;;;;;1.30;60.42;101045.53;5108209;28;20058;-70
2022/01/21 09:17:52;;;;;;;10.57;2.55;;;;;;;1.48;59.52;101047.44;5077396;28;20034;-69
2022/01/21 09:20:18;;;;;;;10.30;2.40;;;;;;;1.54;58.27;101052.50;5100251;28;20073;-70
2022/01/21 09:22:44;;;;;;;5.00;2.05;;;;;;;1.46;58.84;101033.47;5103563;28;20026;-70
2022/01/21 09:25:09;;;;;;;4.63;2.08;;;;;;;1.50;58.32;101040.34;5097835;28;20032;-70
2022/01/21 09:27:35;;;;;;;10.93;1.85;;;;;;;1.41;58.59;101043.34;5102011;28;20035;-70
2022/01/21 09:30:02;;;;;;;8.02;2.10;;;;;;;1.51;58.57;101041.19;5105638;28;20510;-70
2022/01/21 09:32:28;;;;;;;9.98;2.90;;;;;;;1.68;58.23;101058.09;5104615;28;20019;-71
2022/01/21 09:34:53;;;;;;;6.93;2.90;;;;;;;1.63;58.20;101049.50;5092129;28;20035;-71
2022/01/21 09:37:19;;;;;;;6.07;2.08;;;;;;;1.74;57.78;101059.66;5103038;28;20044;-71
2022/01/21 09:39:44;;;;;;;13.82;2.58;;;;;;;1.76;57.42;101066.59;5104260;28;20662;-71
2022/01/21 09:42:13;;;;;;;6.78;2.08;;;;;;;1.69;57.10;101048.38;5107691;28;20034;-71
2022/01/21 09:44:40;;;;;;;7.97;2.28;;;;;;;1.80;55.34;101073.47;5105845;28;20027;-71
2022/01/21 09:47:06;;;;;;;8.88;2.00;;;;;;;1.84;54.18;101066.28;5103278;28;20054;-71
2022/01/21 09:49:34;;;;;;;4.72;2.10;;;;;;;1.71;54.42;101054.50;5101667;28;20047;-70
2022/01/21 09:52:03;;;;;;;11.40;2.10;;;;;;;1.86;53.93;101072.38;5106619;28;20059;-70
2022/01/21 09:54:32;;;;;;;5.57;2.00;;;;;;;1.78;54.30;101055.97;5085557;28;20040;-70
2022/01/21 09:56:59;;;;;;;8.27;2.00;;;;;;;1.78;54.99;101072.66;5105659;28;20092;-70
2022/01/21 09:59:27;;;;;;;5.25;1.95;;;;;;;1.77;54.98;101065.66;5104205;28;20089;-70
2022/01/21 10:01:55;;;;;;;6.10;2.08;;;;;;;1.71;54.73;101047.41;5106374;28;20024;-70
2022/01/21 10:04:26;;;;;;;6.55;1.90;;;;;;;1.73;54.79;101064.06;5099339;28;20028;-70
2022/01/21 10:06:54;;;;;;;8.65;2.20;;;;;;;1.77;54.68;101057.72;5098880;28;20028;-70
2022/01/21 10:09:21;;;;;;;8.60;2.15;;;;;;;1.92;53.18;101062.41;5104107;28;20471;-66
2022/01/21 10:11:50;;;;;;;8.60;2.30;;;;;;;1.95;53.76;101059.66;5096093;28;20042;-66
2022/01/21 10:14:21;;;;;;;6.50;2.05;;;;;;;1.85;53.37;101053.00;5096047;28;20089;-67
2022/01/21 10:16:48;;;;;;;7.00;2.15;;;;;;;1.87;53.91;101060.88;5081692;28;20496;-66
2022/01/21 10:19:22;;;;;;;6.53;2.47;;;;;;;1.89;52.82;101075.75;5103879;28;20034;-67
2022/01/21 10:22:12;;;;;;;7.72;2.05;;;;;;;1.84;52.80;101076.88;5100473;28;20031;-67
2022/01/21 10:24:53;;;;;;;6.35;2.00;;;;;;;1.84;52.63;101069.78;5080547;28;20507;-66
2022/01/21 10:27:35;;;;;;;5.30;1.85;;;;;;;1.97;51.75;101067.53;5076499;28;20395;-67
2022/01/21 10:30:01;;;;;;;8.50;1.95;;;;;;;1.95;52.69;101075.50;5095980;28;20097;-67
2022/01/21 10:32:39;;;;;;;8.13;2.53;;;;;;;1.96;51.53;101079.00;5106988;28;20646;-67
2022/01/21 10:35:22;;;;;;;5.50;2.03;;;;;;;1.98;51.32;101069.22;5105452;28;20023;-67
2022/01/21 10:37:49;;;;;;;8.75;2.05;;;;;;;1.98;50.77;101061.28;5102020;28;20039;-68
2022/01/21 10:40:21;;;;;;;7.72;2.22;;;;;;;1.95;50.97;101059.66;5096452;28;20031;-67
2022/01/21 10:42:47;;;;;;;6.88;2.80;;;;;;;1.97;51.29;101052.50;5092904;27;20035;-67
2022/01/21 10:45:13;;;;;;;4.32;2.10;;;;;;;2.08;50.88;101049.41;5103263;28;20077;-67
2022/01/21 10:47:48;;;;;;;11.10;3.47;;;;;;;2.04;50.71;101059.25;5101685;27;20023;-68
2022/01/21 10:50:17;;;;;;;7.50;2.40;;;;;;;2.23;49.92;101015.22;5086273;28;20054;-68
2022/01/21 10:52:51;;;;;;;4.65;2.08;;;;;;;2.23;49.05;101041.69;5098486;27;20379;-67
2022/01/21 10:55:32;;;;;;;7.20;1.98;;;;;;;2.11;49.59;101031.63;5097183;28;20031;-67
2022/01/21 10:58:16;;;;;;;7.45;1.77;;;;;;;2.27;49.10;101035.34;5097408;27;20042;-66
2022/01/21 11:00:59;;;;;;;5.78;1.88;;;;;;;2.18;48.93;101037.50;5082885;28;20024;-67
2022/01/21 11:03:28;;;;;;;2.10;1.30;;;;;;;2.10;48.72;101037.00;5098910;28;20023;-67
2022/01/21 11:06:16;;;;;;;8.35;1.83;;;;;;;2.20;47.29;101030.38;5095516;28;20030;-67
2022/01/21 11:08:42;;;;;;;3.90;1.50;;;;;;;2.07;47.88;101019.44;5085737;28;20023;-71
2022/01/21 11:11:07;;;;;;;4.53;1.50;;;;;;;2.10;48.00;101031.69;5098312;28;20051;-71
2022/01/21 11:13:36;;;;;;;9.02;1.98;;;;;;;2.23;47.08;101027.59;5080537;28;20127;-71
2022/01/21 11:16:33;;;;;;;3.85;1.17;;;;;;;2.14;47.34;101031.50;5086853;28;20051;-71
2022/01/21 11:19:12;;;;;;;6.63;1.55;;;;;;;2.18;47.57;101030.44;5097415;27;20126;-71
2022/01/21 11:21:44;;;;;;;7.50;1.92;;;;;;;2.22;47.52;101033.81;5103694;28;20032;-72
2022/01/21 11:24:12;;;;;;;8.00;1.75;;;;;;;2.30;47.00;101026.41;5088485;28;20027;-72
2022/01/21 11:26:39;;;;;;;5.00;1.52;;;;;;;2.29;46.80;101025.53;5106032;28;20492;-72
2022/01/21 11:29:05;;;;;;;4.65;2.13;;;;;;;2.30;47.40;101029.91;5102404;27;20023;-73
2022/01/21 11:31:34;;;;;;;5.32;2.03;;;;;;;2.48;47.29;101020.31;5086542;28;20019;-72
2022/01/21 11:34:00;;;;;;;8.20;2.10;;;;;;;2.38;47.98;101027.81;5100944;28;20539;-72
2022/01/21 11:36:26;;;;;;;6.15;1.70;;;;;;;2.33;48.07;101029.78;5109834;28;20166;-72
2022/01/21 11:38:55;;;;;;;8.93;1.40;;;;;;;2.45;47.60;101014.31;5100445;28;20036;-72
2022/01/21 11:41:26;;;;;;;3.25;1.13;;;;;;;2.50;46.90;101017.59;5105738;28;20491;-73
2022/01/21 11:43:59;;;;;;;5.10;1.65;;;;;;;2.56;47.54;101031.44;5100628;28;20563;-72
2022/01/21 11:49:04;;;;;;;6.40;1.73;;;;;;;2.66;49.02;101038.06;5106987;27;20272;-72
2022/01/21 11:51:33;;;;;;;5.72;1.60;;;;;;;2.73;49.03;101028.03;5103887;28;20040;-72
2022/01/21 11:54:00;;;;;;;3.90;1.60;;;;;;;2.65;49.53;101022.22;5102594;28;20042;-72
2022/01/21 11:56:49;;;;;;;6.35;1.60;;;;;;;2.60;50.33;101017.13;5103435;28;20023;-72
2022/01/21 11:59:52;;;;;;;6.63;1.85;;;;;;;2.65;49.86;101033.69;5098350;28;21515;-72
2022/01/21 12:02:24;;;;;;;5.93;2.05;;;;;;;2.62;50.39;101022.34;5103393;28;20040;-72
2022/01/21 12:05:00;;;;;;;8.60;2.00;;;;;;;2.68;49.79;101015.03;5083035;28;20028;-71
2022/01/21 12:07:34;;;;;;;7.28;1.52;;;;;;;2.66;49.92;101023.94;5100004;27;20050;-71
2022/01/21 12:10:01;;;;;;;4.78;1.83;;;;;;;2.61;50.97;100997.66;5106395;28;20113;-72
2022/01/21 12:12:56;;;;;;;4.20;1.80;;;;;;;2.68;50.83;101006.22;5107112;28;20027;-71
2022/01/21 12:15:25;;;;;;;;;;;;;;;2.76;50.60;101004.06;5095474;28;20028;-71
2022/01/21 12:18:41;;;;;;;3.65;1.67;;;;;;;2.72;50.93;100998.06;5085209;28;20041;-70